createdAt,value
2023-02-26T00:01:32.615Z,-1.25
2023-02-26T00:06:33.579Z,-1.25
2023-02-26T00:11:34.646Z,-1.375
2023-02-26T00:16:35.695Z,-1.375
2023-02-26T00:21:36.428Z,-1.5
2023-02-26T00:26:37.591Z,-1.5625
2023-02-26T00:31:38.494Z,-1.5625
2023-02-26T00:36:39.438Z,-1.5625
2023-02-26T00:41:40.616Z,-1.1875
2023-02-26T00:46:41.681Z,-1.1875
2023-02-26T00:51:42.684Z,-1
2023-02-26T00:56:43.892Z,-0.75
2023-02-26T01:01:44.861Z,-0.6875
2023-02-26T01:06:45.657Z,-0.5625
2023-02-26T01:11:46.519Z,-0.5
2023-02-26T01:16:47.664Z,-0.4375
2023-02-26T01:21:48.444Z,-0.375
2023-02-26T01:26:49.981Z,-0.375
2023-02-26T01:31:50.613Z,-0.375
2023-02-26T01:36:51.345Z,-0.3125
2023-02-26T01:41:52.372Z,-0.375
2023-02-26T01:46:53.339Z,-0.3125
2023-02-26T01:51:54.274Z,-0.3125
2023-02-26T01:56:55.483Z,-0.3125
2023-02-26T02:01:56.547Z,-0.25
2023-02-26T02:06:57.568Z,-0.25
2023-02-26T02:11:58.299Z,-0.3125
2023-02-26T02:16:59.264Z,-0.25
2023-02-26T02:22:02.981Z,-0.25
2023-02-26T02:27:01.263Z,-0.25
2023-02-26T02:32:02.433Z,-0.1875
2023-02-26T02:37:03.211Z,-0.1875
2023-02-26T02:42:04.076Z,-0.1875
2023-02-26T02:47:05.081Z,-0.25
2023-02-26T02:52:05.984Z,-0.25
2023-02-26T02:57:06.998Z,-0.25
2023-02-26T03:02:07.912Z,-0.1875
2023-02-26T03:07:08.919Z,-0.25
2023-02-26T03:12:09.841Z,-0.3125
2023-02-26T03:17:10.877Z,-0.5
2023-02-26T03:22:11.881Z,-0.375
2023-02-26T03:27:12.955Z,-0.375
2023-02-26T03:32:14.048Z,-0.25
2023-02-26T03:37:14.783Z,-0.375
2023-02-26T03:42:15.839Z,-0.25
2023-02-26T03:47:16.729Z,-0.25
2023-02-26T03:52:17.723Z,-0.1875
2023-02-26T03:57:18.794Z,-0.25
2023-02-26T04:02:19.727Z,-0.1875
2023-02-26T04:07:20.632Z,-0.125
2023-02-26T04:12:21.538Z,-0.125
2023-02-26T04:17:22.751Z,-0.125
2023-02-26T04:22:23.739Z,-0.125
2023-02-26T04:27:25.194Z,-0.125
2023-02-26T04:32:25.749Z,-0.125
2023-02-26T04:37:26.806Z,-0.0625
2023-02-26T04:42:27.818Z,-0.125
2023-02-26T04:47:28.685Z,-0.0625
2023-02-26T04:52:29.729Z,-0.125
2023-02-26T04:57:30.639Z,-0.0625
2023-02-26T05:02:31.648Z,-0.0625
2023-02-26T05:07:32.610Z,0
2023-02-26T05:12:33.564Z,0
2023-02-26T05:17:34.530Z,0.0625
2023-02-26T05:22:35.403Z,0
2023-02-26T05:27:36.366Z,-0.0625
2023-02-26T05:32:37.401Z,0.0625
2023-02-26T05:37:38.449Z,0.125
2023-02-26T05:42:39.506Z,0.125
2023-02-26T05:47:40.411Z,0.0625
2023-02-26T05:52:41.354Z,0.125
2023-02-26T05:57:42.414Z,0.125
2023-02-26T06:02:43.532Z,0.125
2023-02-26T06:07:44.838Z,0.1875
2023-02-26T06:12:45.853Z,0.25
2023-02-26T06:17:46.898Z,0.25
2023-02-26T06:22:47.762Z,0.25
2023-02-26T06:27:48.794Z,0.375
2023-02-26T06:32:49.673Z,0.4375
2023-02-26T06:37:50.515Z,0.6875
2023-02-26T06:42:51.415Z,0.625
2023-02-26T06:47:52.272Z,0.6875
2023-02-26T06:52:53.445Z,0.6875
2023-02-26T06:57:54.340Z,0.75
2023-02-26T07:02:55.129Z,0.8125
2023-02-26T07:07:56.127Z,1
2023-02-26T07:12:57.070Z,1
2023-02-26T07:17:57.996Z,0.9375
2023-02-26T07:22:59.015Z,0.75
2023-02-26T07:28:00.114Z,0.875
2023-02-26T07:33:00.893Z,1.1875
2023-02-26T07:38:01.825Z,1.75
2023-02-26T07:43:02.885Z,2.0625
2023-02-26T07:48:03.955Z,2.25
2023-02-26T07:53:04.959Z,2.6875
2023-02-26T07:58:06.001Z,3.375
2023-02-26T08:03:06.945Z,5.4375
2023-02-26T08:08:07.817Z,4.5
2023-02-26T08:13:08.802Z,4
2023-02-26T08:18:11.045Z,5
2023-02-26T08:23:12.209Z,5.6875
2023-02-26T08:28:13.633Z,3.375
2023-02-26T08:33:14.161Z,2.6875
2023-02-26T08:38:15.218Z,2.0625
2023-02-26T08:43:16.340Z,1.4375
2023-02-26T08:48:18.339Z,1.3125
2023-02-26T08:53:19.496Z,1.125
2023-02-26T08:58:20.373Z,1.125
2023-02-26T09:03:21.246Z,1.125
2023-02-26T09:08:22.060Z,1.0625
2023-02-26T09:13:23.111Z,1.125
2023-02-26T09:18:23.992Z,1
2023-02-26T09:23:24.761Z,1.25
2023-02-26T09:28:25.883Z,1.25
2023-02-26T09:33:26.588Z,1.375
2023-02-26T09:38:27.542Z,1.5625
2023-02-26T09:43:28.527Z,1.5625
2023-02-26T09:48:29.405Z,1.6875
2023-02-26T09:53:30.281Z,1.8125
2023-02-26T09:58:31.369Z,1.9375
2023-02-26T10:03:32.191Z,1.75
2023-02-26T10:08:33.100Z,2.0625
2023-02-26T10:13:35.405Z,2.3125
2023-02-26T10:18:34.970Z,2.3125
2023-02-26T10:23:35.954Z,2.25
2023-02-26T10:28:37.138Z,2.625
2023-02-26T10:33:38.275Z,2.75
2023-02-26T10:38:39.205Z,2.625
2023-02-26T10:43:40.056Z,2.9375
2023-02-26T10:48:41.156Z,2.6875
2023-02-26T10:53:41.889Z,2.5625
2023-02-26T10:58:42.867Z,3.0625
2023-02-26T11:03:43.847Z,4.1875
2023-02-26T11:08:44.707Z,3.625
2023-02-26T11:13:45.702Z,2.8125
2023-02-26T11:18:46.712Z,2.3125
2023-02-26T11:23:47.826Z,2.9375
2023-02-26T11:28:49.617Z,4.0625
2023-02-26T11:33:49.994Z,3.1875
2023-02-26T11:38:51.034Z,2.75
2023-02-26T11:43:52.078Z,3.375
2023-02-26T11:48:53.092Z,3.5
2023-02-26T11:53:54.067Z,3.4375
2023-02-26T11:58:55.394Z,4.5625
2023-02-26T12:03:55.930Z,4.5625
2023-02-26T12:08:57.065Z,3.8125
2023-02-26T12:13:58.063Z,3.1875
2023-02-26T12:18:59.209Z,2.75
2023-02-26T12:24:00.240Z,3.0625
2023-02-26T12:29:01.228Z,4
2023-02-26T12:34:02.087Z,4.9375
2023-02-26T12:39:04.906Z,5.125
2023-02-26T12:44:06.064Z,4.75
2023-02-26T12:49:06.870Z,3.6875
2023-02-26T12:54:07.847Z,3.25
2023-02-26T12:59:08.666Z,2.8125
2023-02-26T13:04:09.946Z,3.1875
2023-02-26T13:09:11.210Z,4
2023-02-26T13:14:12.094Z,4.25
2023-02-26T13:19:13.146Z,3.9375
2023-02-26T13:24:14.182Z,3.6875
2023-02-26T13:29:15.734Z,3.1875
2023-02-26T13:34:18.895Z,3
2023-02-26T13:39:20.211Z,2.4375
2023-02-26T13:44:21.269Z,3.125
2023-02-26T13:49:22.347Z,3.3125
2023-02-26T13:54:23.477Z,3.5625
2023-02-26T13:59:24.345Z,3.9375
2023-02-26T14:04:25.430Z,4
2023-02-26T14:09:26.192Z,3.6875
2023-02-26T14:14:27.330Z,3.4375
2023-02-26T14:19:28.215Z,3.375
2023-02-26T14:24:29.088Z,3.0625
2023-02-26T14:29:30.439Z,3.375
2023-02-26T14:34:30.897Z,3.5
2023-02-26T14:39:32.034Z,2
2023-02-26T14:44:35.641Z,2.375
2023-02-26T14:49:36.790Z,3.5
2023-02-26T14:54:42.148Z,3.5
2023-02-26T14:59:43.222Z,3.3125
2023-02-26T15:04:43.986Z,3.0625
2023-02-26T15:09:45.125Z,2.75
2023-02-26T15:14:45.992Z,2.5625
2023-02-26T15:19:47.263Z,2.4375
2023-02-26T15:24:48.091Z,2.3125
2023-02-26T15:29:49.232Z,2.375
2023-02-26T15:34:50.002Z,2.5625
2023-02-26T15:39:51.032Z,2.6875
2023-02-26T15:44:57.024Z,2.8125
2023-02-26T15:49:52.734Z,2.8125
2023-02-26T15:54:53.764Z,2.6875
2023-02-26T15:59:54.767Z,2.75
2023-02-26T16:04:55.819Z,2.5625
2023-02-26T16:09:56.928Z,2.375
2023-02-26T16:14:58.346Z,2.1875
2023-02-26T16:19:59.490Z,2.1875
2023-02-26T16:25:00.154Z,2
2023-02-26T16:30:01.435Z,2.25
2023-02-26T16:35:01.917Z,2.125
2023-02-26T16:40:03.085Z,2.125
2023-02-26T16:45:06.466Z,1.8125
2023-02-26T16:50:08.372Z,1.8125
2023-02-26T16:55:09.735Z,1.1875
2023-02-26T17:00:11.715Z,0.625
2023-02-26T17:05:12.718Z,1.625
2023-02-26T17:10:13.739Z,1.5625
2023-02-26T17:15:14.837Z,1.5
2023-02-26T17:20:18.731Z,1.5
2023-02-26T17:30:21.587Z,1.5
2023-02-26T17:40:30.150Z,1.1875
2023-02-26T17:45:30.959Z,1.3125
2023-02-26T17:50:31.716Z,1.1875
2023-02-26T17:55:33.559Z,0.875
2023-02-26T18:00:34.366Z,0.9375
2023-02-26T18:05:35.324Z,0.75
2023-02-26T18:10:36.391Z,0.625
2023-02-26T18:15:37.563Z,0.375
2023-02-26T18:20:41.304Z,0.625
2023-02-26T18:25:42.639Z,0.625
2023-02-26T18:30:44.444Z,0.625
2023-02-26T18:35:44.868Z,0.5625
2023-02-26T18:40:45.899Z,0.375
2023-02-26T18:45:49.477Z,0.4375
2023-02-26T18:50:50.470Z,0.375
2023-02-26T18:55:51.529Z,0.1875
2023-02-26T19:00:52.766Z,0
2023-02-26T19:05:56.251Z,0.0625
2023-02-26T19:10:57.647Z,0
2023-02-26T19:15:58.801Z,-0.0625
2023-02-26T19:20:59.729Z,0.125
2023-02-26T19:26:00.849Z,0
2023-02-26T19:31:02.036Z,-0.0625
2023-02-26T19:36:03.792Z,-0.1875
2023-02-26T19:41:05.559Z,-0.1875
2023-02-26T19:46:06.654Z,-0.125
2023-02-26T19:51:07.708Z,-0.4375
2023-02-26T19:56:08.612Z,-0.4375
2023-02-26T20:01:12.590Z,-0.5
2023-02-26T20:06:15.471Z,-0.5
2023-02-26T20:11:16.614Z,-0.75
2023-02-26T20:16:17.554Z,-0.8125
2023-02-26T20:21:21.931Z,-0.8125
2023-02-26T20:26:25.478Z,-0.8125
2023-02-26T20:31:30.543Z,-0.875
2023-02-26T20:36:32.303Z,-0.875
2023-02-26T20:41:33.293Z,-1.1875
2023-02-26T20:46:34.474Z,-0.6875
2023-02-26T20:51:35.592Z,-2.3125
2023-02-26T20:56:36.590Z,-0.8125
2023-02-26T21:01:37.707Z,-0.625
2023-02-26T21:06:38.465Z,-0.4375
2023-02-26T21:11:40.599Z,-0.3125
2023-02-26T21:16:41.947Z,-0.125
2023-02-26T21:21:42.735Z,-0.0625
2023-02-26T21:26:43.659Z,0.0625
2023-02-26T21:31:44.700Z,0
2023-02-26T21:36:45.363Z,-0.125
2023-02-26T21:41:46.138Z,-0.0625
2023-02-26T21:46:47.156Z,-0.25
2023-02-26T21:51:48.033Z,-0.4375
2023-02-26T21:56:49.096Z,-0.625
2023-02-26T22:01:50.434Z,-0.8125
2023-02-26T22:06:55.863Z,-0.9375
2023-02-26T22:11:57.145Z,-0.75
2023-02-26T22:16:58.198Z,-0.625
2023-02-26T22:21:58.856Z,-0.8125
2023-02-26T22:26:59.658Z,-1
2023-02-26T22:32:03.530Z,-1.25
2023-02-26T22:37:03.985Z,-1.25
2023-02-26T22:42:04.936Z,-1.3125
2023-02-26T22:47:05.641Z,-1.625
2023-02-26T22:52:06.718Z,-1.5625
2023-02-26T22:57:07.588Z,-1.5
2023-02-26T23:02:08.603Z,-1.4375
2023-02-26T23:07:14.524Z,-1.5
2023-02-26T23:12:15.874Z,-1.4375
2023-02-26T23:17:16.743Z,-1.5
2023-02-26T23:22:17.571Z,-1.5625
2023-02-26T23:27:18.552Z,-1.5
2023-02-26T23:32:19.571Z,-1.5
2023-02-26T23:37:20.376Z,-1.625
2023-02-26T23:42:21.375Z,-1.5
2023-02-26T23:47:22.267Z,-1.5
2023-02-26T23:52:23.222Z,-1.625
2023-02-26T23:57:24.224Z,-1.75
